sensor_id;sensor_type;location;lat;lon;timestamp;pressure;altitude;pressure_sealevel;temperature;humidity
39141;BME280;24875;48.436;10.298;2022-12-20T00:00:11;96943.72;;;0.34;100.00
39141;BME280;24875;48.436;10.298;2022-12-20T00:02:37;96947.72;;;0.25;100.00
39141;BME280;24875;48.436;10.298;2022-12-20T00:05:04;96939.44;;;0.33;100.00
39141;BME280;24875;48.436;10.298;2022-12-20T00:07:32;96940.03;;;0.50;100.00
39141;BME280;24875;48.436;10.298;2022-12-20T00:09:59;96935.94;;;0.34;100.00
39141;BME280;24875;48.436;10.298;2022-12-20T00:12:25;96953.69;;;0.40;100.00
39141;BME280;24875;48.436;10.298;2022-12-20T00:14:52;96944.00;;;0.29;100.00
39141;BME280;24875;48.436;10.298;2022-12-20T00:17:20;96958.06;;;0.25;100.00
39141;BME280;24875;48.436;10.298;2022-12-20T00:19:46;96943.81;;;0.32;100.00
39141;BME280;24875;48.436;10.298;2022-12-20T00:22:13;96946.41;;;0.32;100.00
39141;BME280;24875;48.436;10.298;2022-12-20T00:24:40;96952.72;;;0.28;100.00
39141;BME280;24875;48.436;10.298;2022-12-20T00:27:07;96949.53;;;0.37;100.00
39141;BME280;24875;48.436;10.298;2022-12-20T00:29:34;96958.88;;;0.40;100.00
39141;BME280;24875;48.436;10.298;2022-12-20T00:32:00;96949.53;;;0.37;100.00
39141;BME280;24875;48.436;10.298;2022-12-20T00:34:27;96954.63;;;0.39;100.00
39141;BME280;24875;48.436;10.298;2022-12-20T00:36:53;96942.25;;;0.30;100.00
39141;BME280;24875;48.436;10.298;2022-12-20T00:39:20;96935.28;;;0.30;100.00
39141;BME280;24875;48.436;10.298;2022-12-20T00:41:47;96932.53;;;0.33;100.00
39141;BME280;24875;48.436;10.298;2022-12-20T00:44:14;96930.00;;;0.19;100.00
39141;BME280;24875;48.436;10.298;2022-12-20T00:46:40;96928.97;;;0.22;100.00
39141;BME280;24875;48.436;10.298;2022-12-20T00:49:07;96938.47;;;0.21;100.00
39141;BME280;24875;48.436;10.298;2022-12-20T00:51:33;96937.88;;;0.30;100.00
39141;BME280;24875;48.436;10.298;2022-12-20T00:54:00;96944.84;;;0.30;100.00
39141;BME280;24875;48.436;10.298;2022-12-20T00:56:26;96945.72;;;0.16;100.00
39141;BME280;24875;48.436;10.298;2022-12-20T00:58:57;96941.59;;;0.26;100.00
39141;BME280;24875;48.436;10.298;2022-12-20T01:01:25;96947.91;;;0.22;100.00
39141;BME280;24875;48.436;10.298;2022-12-20T01:03:53;96945.31;;;0.22;100.00
39141;BME280;24875;48.436;10.298;2022-12-20T01:06:20;96947.53;;;0.28;100.00
39141;BME280;24875;48.436;10.298;2022-12-20T01:08:47;96933.84;;;0.26;100.00
39141;BME280;24875;48.436;10.298;2022-12-20T01:11:15;96944.09;;;0.28;100.00
39141;BME280;24875;48.436;10.298;2022-12-20T01:13:45;96941.81;;;0.23;100.00
39141;BME280;24875;48.436;10.298;2022-12-20T01:16:16;96944.31;;;0.25;100.00
39141;BME280;24875;48.436;10.298;2022-12-20T01:18:42;96945.72;;;0.16;100.00
39141;BME280;24875;48.436;10.298;2022-12-20T01:21:11;96953.41;;;0.18;100.00
39141;BME280;24875;48.436;10.298;2022-12-20T01:23:38;96953.34;;;0.05;100.00
39141;BME280;24875;48.436;10.298;2022-12-20T01:26:06;96952.22;;;0.09;100.00
39141;BME280;24875;48.436;10.298;2022-12-20T01:28:36;96947.97;;;0.08;100.00
39141;BME280;24875;48.436;10.298;2022-12-20T01:31:05;96940.34;;;0.19;100.00
39141;BME280;24875;48.436;10.298;2022-12-20T01:33:33;96932.03;;;0.14;100.00
39141;BME280;24875;48.436;10.298;2022-12-20T01:36:02;96948.59;;;0.12;100.00
39141;BME280;24875;48.436;10.298;2022-12-20T01:38:29;96945.53;;;0.19;100.00
39141;BME280;24875;48.436;10.298;2022-12-20T01:40:56;96949.03;;;0.18;100.00
39141;BME280;24875;48.436;10.298;2022-12-20T01:43:23;96951.97;;;0.26;100.00
39141;BME280;24875;48.436;10.298;2022-12-20T01:45:51;96951.09;;;0.13;100.00
39141;BME280;24875;48.436;10.298;2022-12-20T01:48:20;96948.03;;;0.21;100.00
39141;BME280;24875;48.436;10.298;2022-12-20T01:50:50;96936.91;;;0.19;100.00
39141;BME280;24875;48.436;10.298;2022-12-20T01:53:20;96930.16;;;0.16;100.00
39141;BME280;24875;48.436;10.298;2022-12-20T01:55:47;96925.50;;;0.09;100.00
39141;BME280;24875;48.436;10.298;2022-12-20T01:58:17;96921.22;;;0.08;100.00
39141;BME280;24875;48.436;10.298;2022-12-20T02:00:45;96919.03;;;0.02;100.00
39141;BME280;24875;48.436;10.298;2022-12-20T02:03:13;96907.44;;;0.07;100.00
39141;BME280;24875;48.436;10.298;2022-12-20T02:05:42;96925.56;;;0.07;100.00
39141;BME280;24875;48.436;10.298;2022-12-20T02:08:12;96918.66;;;0.08;100.00
39141;BME280;24875;48.436;10.298;2022-12-20T02:10:51;96917.41;;;0.13;100.00
39141;BME280;24875;48.436;10.298;2022-12-20T02:13:33;96929.63;;;0.11;100.00
39141;BME280;24875;48.436;10.298;2022-12-20T02:16:03;96924.97;;;0.04;100.00
39141;BME280;24875;48.436;10.298;2022-12-20T02:18:35;96916.50;;;0.14;100.00
39141;BME280;24875;48.436;10.298;2022-12-20T02:21:21;96911.47;;;0.11;100.00
39141;BME280;24875;48.436;10.298;2022-12-20T02:24:20;96910.13;;;-0.20;100.00
39141;BME280;24875;48.436;10.298;2022-12-20T02:27:17;96916.81;;;-0.04;100.00
39141;BME280;24875;48.436;10.298;2022-12-20T02:30:03;96922.53;;;-0.25;100.00
39141;BME280;24875;48.436;10.298;2022-12-20T02:32:35;96916.41;;;-0.24;100.00
39141;BME280;24875;48.436;10.298;2022-12-20T02:35:05;96911.97;;;-0.22;100.00
39141;BME280;24875;48.436;10.298;2022-12-20T02:37:32;96908.63;;;-0.24;100.00
39141;BME280;24875;48.436;10.298;2022-12-20T02:39:59;96906.03;;;-0.24;100.00
39141;BME280;24875;48.436;10.298;2022-12-20T02:42:28;96910.19;;;-0.22;100.00
39141;BME280;24875;48.436;10.298;2022-12-20T02:44:59;96911.97;;;-0.22;100.00
39141;BME280;24875;48.436;10.298;2022-12-20T02:47:47;96900.13;;;-0.12;100.00
39141;BME280;24875;48.436;10.298;2022-12-20T02:50:17;96907.44;;;-0.19;100.00
39141;BME280;24875;48.436;10.298;2022-12-20T02:52:46;96902.00;;;-0.28;100.00
39141;BME280;24875;48.436;10.298;2022-12-20T02:55:13;96899.03;;;-0.22;100.00
39141;BME280;24875;48.436;10.298;2022-12-20T02:57:44;96898.25;;;-0.10;100.00
39141;BME280;24875;48.436;10.298;2022-12-20T03:00:15;96885.28;;;-0.10;100.00
39141;BME280;24875;48.436;10.298;2022-12-20T03:02:46;96889.06;;;-0.02;100.00
39141;BME280;24875;48.436;10.298;2022-12-20T03:05:33;96886.38;;;-0.01;100.00
39141;BME280;24875;48.436;10.298;2022-12-20T03:08:00;96875.97;;;-0.13;100.00
39141;BME280;24875;48.436;10.298;2022-12-20T03:10:27;96868.75;;;-0.34;100.00
39141;BME280;24875;48.436;10.298;2022-12-20T03:12:54;96862.22;;;-0.27;100.00
39141;BME280;24875;48.436;10.298;2022-12-20T03:15:20;96869.72;;;-0.23;100.00
39141;BME280;24875;48.436;10.298;2022-12-20T03:17:48;96859.88;;;-0.18;100.00
39141;BME280;24875;48.436;10.298;2022-12-20T03:20:15;96849.97;;;-0.38;100.00
39141;BME280;24875;48.436;10.298;2022-12-20T03:22:41;96850.06;;;-0.39;100.00
39141;BME280;24875;48.436;10.298;2022-12-20T03:25:08;96850.25;;;-0.42;100.00
39141;BME280;24875;48.436;10.298;2022-12-20T03:27:34;96851.38;;;-0.46;100.00
39141;BME280;24875;48.436;10.298;2022-12-20T03:30:02;96853.03;;;-0.45;100.00
39141;BME280;24875;48.436;10.298;2022-12-20T03:32:28;96851.78;;;-0.52;100.00
39141;BME280;24875;48.436;10.298;2022-12-20T03:34:56;96848.16;;;-0.50;100.00
39141;BME280;24875;48.436;10.298;2022-12-20T03:37:23;96859.16;;;-0.60;100.00
39141;BME280;24875;48.436;10.298;2022-12-20T03:39:49;96859.25;;;-0.62;100.00
39141;BME280;24875;48.436;10.298;2022-12-20T03:42:16;96857.69;;;-0.64;100.00
39141;BME280;24875;48.436;10.298;2022-12-20T03:44:42;96857.41;;;-0.60;100.00
39141;BME280;24875;48.436;10.298;2022-12-20T03:47:09;96856.78;;;-0.63;100.00
39141;BME280;24875;48.436;10.298;2022-12-20T03:49:35;96855.66;;;-0.73;100.00
39141;BME280;24875;48.436;10.298;2022-12-20T03:52:04;96850.22;;;-0.68;100.00
39141;BME280;24875;48.436;10.298;2022-12-20T03:54:30;96859.69;;;-0.95;100.00
39141;BME280;24875;48.436;10.298;2022-12-20T03:56:57;96861.88;;;-0.89;100.00
39141;BME280;24875;48.436;10.298;2022-12-20T03:59:23;96861.88;;;-1.03;100.00
39141;BME280;24875;48.436;10.298;2022-12-20T04:01:50;96852.19;;;-1.00;100.00
39141;BME280;24875;48.436;10.298;2022-12-20T04:04:16;96859.78;;;-1.11;100.00
39141;BME280;24875;48.436;10.298;2022-12-20T04:06:43;96852.19;;;-1.00;100.00
39141;BME280;24875;48.436;10.298;2022-12-20T04:09:11;96843.88;;;-0.91;100.00
39141;BME280;24875;48.436;10.298;2022-12-20T04:11:37;96843.97;;;-1.06;100.00
39141;BME280;24875;48.436;10.298;2022-12-20T04:14:05;96837.22;;;-1.09;100.00
39141;BME280;24875;48.436;10.298;2022-12-20T04:16:31;96833.38;;;-1.16;100.00
39141;BME280;24875;48.436;10.298;2022-12-20T04:18:58;96840.38;;;-1.18;100.00
39141;BME280;24875;48.436;10.298;2022-12-20T04:21:26;96838.59;;;-1.03;100.00
39141;BME280;24875;48.436;10.298;2022-12-20T04:23:53;96838.59;;;-1.03;100.00
39141;BME280;24875;48.436;10.298;2022-12-20T04:26:21;96817.75;;;-1.00;100.00
39141;BME280;24875;48.436;10.298;2022-12-20T04:28:48;96817.47;;;-1.37;100.00
39141;BME280;24875;48.436;10.298;2022-12-20T04:31:14;96811.94;;;-1.18;100.00
39141;BME280;24875;48.436;10.298;2022-12-20T04:33:41;96830.13;;;-1.19;100.00
39141;BME280;24875;48.436;10.298;2022-12-20T04:36:08;96828.28;;;-1.17;100.00
39141;BME280;24875;48.436;10.298;2022-12-20T04:38:34;96810.56;;;-1.23;100.00
39141;BME280;24875;48.436;10.298;2022-12-20T04:41:01;96803.16;;;-1.29;100.00
39141;BME280;24875;48.436;10.298;2022-12-20T04:43:29;96795.50;;;-1.30;100.00
39141;BME280;24875;48.436;10.298;2022-12-20T04:45:55;96796.59;;;-1.34;100.00
39141;BME280;24875;48.436;10.298;2022-12-20T04:48:23;96800.00;;;-1.20;100.00
39141;BME280;24875;48.436;10.298;2022-12-20T04:50:52;96805.56;;;-1.26;100.00
39141;BME280;24875;48.436;10.298;2022-12-20T04:53:19;96808.72;;;-1.49;100.00
39141;BME280;24875;48.436;10.298;2022-12-20T04:56:04;96810.81;;;-1.41;100.00
39141;BME280;24875;48.436;10.298;2022-12-20T04:58:32;96813.13;;;-1.37;100.00
39141;BME280;24875;48.436;10.298;2022-12-20T05:00:58;96813.94;;;-1.36;100.00
39141;BME280;24875;48.436;10.298;2022-12-20T05:03:25;96801.78;;;-1.34;100.00
39141;BME280;24875;48.436;10.298;2022-12-20T05:05:52;96813.41;;;-1.27;100.00
39141;BME280;24875;48.436;10.298;2022-12-20T05:08:19;96801.03;;;-1.23;100.00
39141;BME280;24875;48.436;10.298;2022-12-20T05:10:46;96813.25;;;-1.24;100.00
39141;BME280;24875;48.436;10.298;2022-12-20T05:13:13;96806.03;;;-1.33;100.00
39141;BME280;24875;48.436;10.298;2022-12-20T05:15:41;96798.91;;;-1.30;100.00
39141;BME280;24875;48.436;10.298;2022-12-20T05:18:08;96800.41;;;-1.26;100.00
39141;BME280;24875;48.436;10.298;2022-12-20T05:20:34;96793.38;;;-1.24;100.00
39141;BME280;24875;48.436;10.298;2022-12-20T05:23:01;96796.50;;;-1.19;100.00
39141;BME280;24875;48.436;10.298;2022-12-20T05:25:46;96795.31;;;-1.14;100.00
39141;BME280;24875;48.436;10.298;2022-12-20T05:28:32;96789.75;;;-1.08;100.00
39141;BME280;24875;48.436;10.298;2022-12-20T05:31:00;96796.22;;;-1.01;100.00
39141;BME280;24875;48.436;10.298;2022-12-20T05:33:27;96790.22;;;-1.01;100.00
39141;BME280;24875;48.436;10.298;2022-12-20T05:35:54;96790.41;;;-1.04;100.00
39141;BME280;24875;48.436;10.298;2022-12-20T05:38:21;96782.19;;;-0.97;100.00
39141;BME280;24875;48.436;10.298;2022-12-20T05:40:48;96780.97;;;-0.91;100.00
39141;BME280;24875;48.436;10.298;2022-12-20T05:43:16;96789.06;;;-0.83;100.00
39141;BME280;24875;48.436;10.298;2022-12-20T05:45:45;96781.03;;;-0.79;100.00
39141;BME280;24875;48.436;10.298;2022-12-20T05:48:14;96777.50;;;-0.78;100.00
39141;BME280;24875;48.436;10.298;2022-12-20T05:50:41;96775.53;;;-1.01;100.00
39141;BME280;24875;48.436;10.298;2022-12-20T05:53:09;96776.72;;;-1.06;100.00
39141;BME280;24875;48.436;10.298;2022-12-20T05:55:35;96773.47;;;-0.96;100.00
39141;BME280;24875;48.436;10.298;2022-12-20T05:58:05;96773.66;;;-0.85;100.00
39141;BME280;24875;48.436;10.298;2022-12-20T06:00:31;96767.47;;;-0.82;100.00
39141;BME280;24875;48.436;10.298;2022-12-20T06:02:58;96767.59;;;-0.71;100.00
39141;BME280;24875;48.436;10.298;2022-12-20T06:05:26;96765.28;;;-0.62;100.00
39141;BME280;24875;48.436;10.298;2022-12-20T06:07:52;96773.63;;;-0.71;100.00
39141;BME280;24875;48.436;10.298;2022-12-20T06:10:19;96777.13;;;-0.72;100.00
39141;BME280;24875;48.436;10.298;2022-12-20T06:12:45;96769.28;;;-0.70;100.00
39141;BME280;24875;48.436;10.298;2022-12-20T06:15:12;96758.09;;;-0.71;100.00
39141;BME280;24875;48.436;10.298;2022-12-20T06:17:39;96755.41;;;-0.69;100.00
39141;BME280;24875;48.436;10.298;2022-12-20T06:20:07;96757.69;;;-0.65;100.00
39141;BME280;24875;48.436;10.298;2022-12-20T06:22:35;96750.56;;;-0.62;100.00
39141;BME280;24875;48.436;10.298;2022-12-20T06:25:03;96744.03;;;-0.67;100.00
39141;BME280;24875;48.436;10.298;2022-12-20T06:27:29;96743.66;;;-0.61;100.00
39141;BME280;24875;48.436;10.298;2022-12-20T06:29:56;96746.97;;;-0.59;100.00
39141;BME280;24875;48.436;10.298;2022-12-20T06:32:22;96745.72;;;-0.54;100.00
39141;BME280;24875;48.436;10.298;2022-12-20T06:34:49;96745.34;;;-0.48;100.00
39141;BME280;24875;48.436;10.298;2022-12-20T06:37:16;96743.63;;;-0.35;100.00
39141;BME280;24875;48.436;10.298;2022-12-20T06:39:43;96740.53;;;-0.27;100.00
39141;BME280;24875;48.436;10.298;2022-12-20T06:42:10;96747.97;;;-0.35;100.00
39141;BME280;24875;48.436;10.298;2022-12-20T06:44:37;96750.56;;;-0.35;100.00
39141;BME280;24875;48.436;10.298;2022-12-20T06:47:03;96742.59;;;-0.32;100.00
39141;BME280;24875;48.436;10.298;2022-12-20T06:49:30;96751.63;;;-0.25;100.00
39141;BME280;24875;48.436;10.298;2022-12-20T06:51:56;96757.09;;;-0.30;100.00
39141;BME280;24875;48.436;10.298;2022-12-20T06:54:23;96747.50;;;-0.15;100.00
39141;BME280;24875;48.436;10.298;2022-12-20T06:56:50;96755.13;;;0.00;100.00
39141;BME280;24875;48.436;10.298;2022-12-20T06:59:17;96742.56;;;-0.06;100.00
39141;BME280;24875;48.436;10.298;2022-12-20T07:01:44;96750.63;;;-0.10;100.00
39141;BME280;24875;48.436;10.298;2022-12-20T07:04:10;96743.97;;;-0.14;100.00
39141;BME280;24875;48.436;10.298;2022-12-20T07:06:37;96744.63;;;-0.11;100.00
39141;BME280;24875;48.436;10.298;2022-12-20T07:09:03;96751.22;;;-0.19;100.00
39141;BME280;24875;48.436;10.298;2022-12-20T07:11:30;96753.22;;;-0.10;100.00
39141;BME280;24875;48.436;10.298;2022-12-20T07:13:58;96758.91;;;-0.05;100.00
39141;BME280;24875;48.436;10.298;2022-12-20T07:16:25;96759.75;;;-0.05;100.00
39141;BME280;24875;48.436;10.298;2022-12-20T07:18:52;96753.34;;;0.00;100.00
39141;BME280;24875;48.436;10.298;2022-12-20T07:21:20;96755.44;;;0.08;100.00
39141;BME280;24875;48.436;10.298;2022-12-20T07:23:46;96759.69;;;0.09;100.00
39141;BME280;24875;48.436;10.298;2022-12-20T07:26:13;96750.84;;;0.11;100.00
39141;BME280;24875;48.436;10.298;2022-12-20T07:28:41;96753.38;;;0.13;100.00
39141;BME280;24875;48.436;10.298;2022-12-20T07:31:09;96753.25;;;0.14;100.00
39141;BME280;24875;48.436;10.298;2022-12-20T07:33:35;96741.88;;;0.17;100.00
39141;BME280;24875;48.436;10.298;2022-12-20T07:36:04;96745.78;;;0.22;100.00
39141;BME280;24875;48.436;10.298;2022-12-20T07:38:32;96735.31;;;0.11;100.00
39141;BME280;24875;48.436;10.298;2022-12-20T07:40:59;96741.00;;;0.16;100.00
39141;BME280;24875;48.436;10.298;2022-12-20T07:43:26;96737.19;;;0.09;100.00
39141;BME280;24875;48.436;10.298;2022-12-20T07:45:53;96730.78;;;0.27;100.00
39141;BME280;24875;48.436;10.298;2022-12-20T07:48:22;96738.66;;;0.38;100.00
39141;BME280;24875;48.436;10.298;2022-12-20T07:50:50;96737.41;;;0.44;100.00
39141;BME280;24875;48.436;10.298;2022-12-20T07:53:18;96732.84;;;0.47;100.00
39141;BME280;24875;48.436;10.298;2022-12-20T07:55:44;96742.59;;;0.44;100.00
39141;BME280;24875;48.436;10.298;2022-12-20T07:58:12;96736.25;;;0.60;100.00
39141;BME280;24875;48.436;10.298;2022-12-20T08:00:40;96741.00;;;0.66;100.00
39141;BME280;24875;48.436;10.298;2022-12-20T08:03:10;96742.84;;;0.89;100.00
39141;BME280;24875;48.436;10.298;2022-12-20T08:05:42;96744.63;;;0.88;100.00
39141;BME280;24875;48.436;10.298;2022-12-20T08:08:11;96748.38;;;0.84;100.00
39141;BME280;24875;48.436;10.298;2022-12-20T08:10:39;96753.22;;;0.89;100.00
39141;BME280;24875;48.436;10.298;2022-12-20T08:13:05;96743.88;;;0.99;100.00
39141;BME280;24875;48.436;10.298;2022-12-20T08:15:33;96736.16;;;1.10;100.00
39141;BME280;24875;48.436;10.298;2022-12-20T08:18:00;96738.97;;;1.07;100.00
39141;BME280;24875;48.436;10.298;2022-12-20T08:20:27;96739.69;;;1.09;100.00
39141;BME280;24875;48.436;10.298;2022-12-20T08:22:55;96740.84;;;1.05;100.00
39141;BME280;24875;48.436;10.298;2022-12-20T08:25:22;96739.88;;;1.18;100.00
39141;BME280;24875;48.436;10.298;2022-12-20T08:27:48;96735.19;;;1.23;100.00
39141;BME280;24875;48.436;10.298;2022-12-20T08:30:15;96727.50;;;1.21;100.00
39141;BME280;24875;48.436;10.298;2022-12-20T08:32:42;96733.75;;;1.19;100.00
39141;BME280;24875;48.436;10.298;2022-12-20T08:35:09;96733.47;;;1.11;100.00
39141;BME280;24875;48.436;10.298;2022-12-20T08:37:37;96733.78;;;1.07;100.00
39141;BME280;24875;48.436;10.298;2022-12-20T08:40:06;96727.94;;;1.16;100.00
39141;BME280;24875;48.436;10.298;2022-12-20T08:42:33;96724.84;;;1.11;100.00
39141;BME280;24875;48.436;10.298;2022-12-20T08:44:59;96711.94;;;1.21;100.00
39141;BME280;24875;48.436;10.298;2022-12-20T08:47:27;96714.91;;;1.51;100.00
39141;BME280;24875;48.436;10.298;2022-12-20T08:49:54;96718.00;;;1.56;100.00
39141;BME280;24875;48.436;10.298;2022-12-20T08:52:20;96721.53;;;1.55;100.00
39141;BME280;24875;48.436;10.298;2022-12-20T08:54:47;96734.59;;;1.66;100.00
39141;BME280;24875;48.436;10.298;2022-12-20T08:57:15;96737.19;;;1.66;100.00
39141;BME280;24875;48.436;10.298;2022-12-20T08:59:41;96729.88;;;1.71;100.00
39141;BME280;24875;48.436;10.298;2022-12-20T09:02:08;96736.91;;;1.58;100.00
39141;BME280;24875;48.436;10.298;2022-12-20T09:04:34;96747.44;;;1.68;100.00
39141;BME280;24875;48.436;10.298;2022-12-20T09:07:01;96740.50;;;1.68;100.00
39141;BME280;24875;48.436;10.298;2022-12-20T09:09:28;96733.91;;;1.75;100.00
39141;BME280;24875;48.436;10.298;2022-12-20T09:11:54;96743.38;;;1.76;100.00
39141;BME280;24875;48.436;10.298;2022-12-20T09:14:22;96733.00;;;1.87;100.00
39141;BME280;24875;48.436;10.298;2022-12-20T09:16:49;96728.47;;;1.67;100.00
39141;BME280;24875;48.436;10.298;2022-12-20T09:19:15;96723.38;;;1.66;100.00
39141;BME280;24875;48.436;10.298;2022-12-20T09:21:42;96712.88;;;1.67;100.00
39141;BME280;24875;48.436;10.298;2022-12-20T09:24:09;96714.34;;;1.82;100.00
39141;BME280;24875;48.436;10.298;2022-12-20T09:26:35;96710.13;;;1.92;100.00
39141;BME280;24875;48.436;10.298;2022-12-20T09:29:03;96710.13;;;1.92;100.00
39141;BME280;24875;48.436;10.298;2022-12-20T09:31:30;96706.25;;;2.08;100.00
39141;BME280;24875;48.436;10.298;2022-12-20T09:33:58;96708.06;;;2.19;100.00
39141;BME280;24875;48.436;10.298;2022-12-20T09:36:26;96703.22;;;2.25;100.00
39141;BME280;24875;48.436;10.298;2022-12-20T09:38:53;96705.72;;;2.27;100.00
39141;BME280;24875;48.436;10.298;2022-12-20T09:41:25;96686.13;;;2.44;100.00
39141;BME280;24875;48.436;10.298;2022-12-20T09:43:54;96675.47;;;2.47;100.00
39141;BME280;24875;48.436;10.298;2022-12-20T09:46:21;96671.81;;;2.50;100.00
39141;BME280;24875;48.436;10.298;2022-12-20T09:48:50;96678.31;;;2.34;100.00
39141;BME280;24875;48.436;10.298;2022-12-20T09:51:28;96682.94;;;2.41;100.00
39141;BME280;24875;48.436;10.298;2022-12-20T09:54:06;96698.75;;;2.49;100.00
39141;BME280;24875;48.436;10.298;2022-12-20T09:56:41;96691.66;;;2.29;100.00
39141;BME280;24875;48.436;10.298;2022-12-20T09:59:10;96683.28;;;2.47;100.00
39141;BME280;24875;48.436;10.298;2022-12-20T10:01:42;96669.56;;;2.56;100.00
39141;BME280;24875;48.436;10.298;2022-12-20T10:04:19;96676.19;;;2.60;100.00
39141;BME280;24875;48.436;10.298;2022-12-20T10:06:55;96678.78;;;2.82;100.00
39141;BME280;24875;48.436;10.298;2022-12-20T10:09:39;96666.22;;;2.87;100.00
39141;BME280;24875;48.436;10.298;2022-12-20T10:12:15;96671.56;;;2.86;100.00
39141;BME280;24875;48.436;10.298;2022-12-20T10:14:53;96655.81;;;2.87;100.00
39141;BME280;24875;48.436;10.298;2022-12-20T10:17:33;96659.38;;;2.97;100.00
39141;BME280;24875;48.436;10.298;2022-12-20T10:20:20;96658.16;;;3.01;100.00
39141;BME280;24875;48.436;10.298;2022-12-20T10:22:53;96668.16;;;2.85;100.00
39141;BME280;24875;48.436;10.298;2022-12-20T10:25:25;96647.28;;;3.07;100.00
39141;BME280;24875;48.436;10.298;2022-12-20T10:27:55;96643.88;;;3.27;100.00
39141;BME280;24875;48.436;10.298;2022-12-20T10:30:24;96631.16;;;3.44;100.00
39141;BME280;24875;48.436;10.298;2022-12-20T10:32:54;96627.56;;;3.56;100.00
39141;BME280;24875;48.436;10.298;2022-12-20T10:35:24;96631.25;;;3.54;100.00
39141;BME280;24875;48.436;10.298;2022-12-20T10:37:58;96644.56;;;3.71;100.00
39141;BME280;24875;48.436;10.298;2022-12-20T10:40:28;96642.44;;;3.65;100.00
39141;BME280;24875;48.436;10.298;2022-12-20T10:42:55;96636.78;;;3.29;100.00
39141;BME280;24875;48.436;10.298;2022-12-20T10:45:31;96632.22;;;3.10;100.00
39141;BME280;24875;48.436;10.298;2022-12-20T10:47:59;96619.31;;;3.20;100.00
39141;BME280;24875;48.436;10.298;2022-12-20T10:50:28;96614.91;;;3.52;100.00
39141;BME280;24875;48.436;10.298;2022-12-20T10:53:18;96587.66;;;3.96;100.00
39141;BME280;24875;48.436;10.298;2022-12-20T10:55:46;96594.56;;;4.07;100.00
39141;BME280;24875;48.436;10.298;2022-12-20T10:58:14;96592.75;;;4.27;100.00
39141;BME280;24875;48.436;10.298;2022-12-20T11:00:42;96587.72;;;4.35;100.00
39141;BME280;24875;48.436;10.298;2022-12-20T11:03:12;96582.03;;;4.60;100.00
39141;BME280;24875;48.436;10.298;2022-12-20T11:05:54;96575.81;;;5.19;99.05
39141;BME280;24875;48.436;10.298;2022-12-20T11:08:21;96573.22;;;5.19;97.82
39141;BME280;24875;48.436;10.298;2022-12-20T11:11:09;96567.44;;;5.63;96.87
39141;BME280;24875;48.436;10.298;2022-12-20T11:13:37;96552.72;;;5.62;95.39
39141;BME280;24875;48.436;10.298;2022-12-20T11:16:04;96562.94;;;5.46;94.72
39141;BME280;24875;48.436;10.298;2022-12-20T11:18:39;96569.19;;;4.78;99.26
39141;BME280;24875;48.436;10.298;2022-12-20T11:21:22;96546.84;;;5.22;97.82
39141;BME280;24875;48.436;10.298;2022-12-20T11:23:55;96550.13;;;5.34;97.09
39141;BME280;24875;48.436;10.298;2022-12-20T11:26:34;96546.56;;;5.16;98.15
39141;BME280;24875;48.436;10.298;2022-12-20T11:29:16;96541.19;;;5.45;98.50
39141;BME280;24875;48.436;10.298;2022-12-20T11:31:52;96536.91;;;5.82;98.33
39141;BME280;24875;48.436;10.298;2022-12-20T11:34:30;96525.88;;;5.79;99.04
39141;BME280;24875;48.436;10.298;2022-12-20T11:37:17;96521.06;;;5.84;98.96
39141;BME280;24875;48.436;10.298;2022-12-20T11:39:56;96519.00;;;5.68;100.00
39141;BME280;24875;48.436;10.298;2022-12-20T11:42:35;96524.22;;;5.87;99.83
39141;BME280;24875;48.436;10.298;2022-12-20T11:45:10;96521.22;;;5.82;99.70
39141;BME280;24875;48.436;10.298;2022-12-20T11:47:50;96515.28;;;5.90;99.50
39141;BME280;24875;48.436;10.298;2022-12-20T11:50:41;96510.94;;;6.07;99.70
39141;BME280;24875;48.436;10.298;2022-12-20T11:53:17;96503.88;;;5.81;100.00
39141;BME280;24875;48.436;10.298;2022-12-20T11:55:48;96501.09;;;5.83;100.00
39141;BME280;24875;48.436;10.298;2022-12-20T11:58:20;96496.59;;;5.47;100.00
39141;BME280;24875;48.436;10.298;2022-12-20T12:00:52;96490.56;;;5.46;100.00
39141;BME280;24875;48.436;10.298;2022-12-20T12:03:25;96498.13;;;5.49;100.00
39141;BME280;24875;48.436;10.298;2022-12-20T12:05:56;96490.56;;;5.46;100.00
39141;BME280;24875;48.436;10.298;2022-12-20T12:08:33;96474.28;;;5.71;100.00
39141;BME280;24875;48.436;10.298;2022-12-20T12:11:10;96481.19;;;5.82;100.00
39141;BME280;24875;48.436;10.298;2022-12-20T12:13:39;96489.97;;;5.81;100.00
39141;BME280;24875;48.436;10.298;2022-12-20T12:16:09;96488.69;;;5.94;100.00
39141;BME280;24875;48.436;10.298;2022-12-20T12:18:38;96483.50;;;5.75;100.00
39141;BME280;24875;48.436;10.298;2022-12-20T12:21:07;96485.09;;;5.95;100.00
39141;BME280;24875;48.436;10.298;2022-12-20T12:23:44;96488.94;;;6.01;100.00
39141;BME280;24875;48.436;10.298;2022-12-20T12:26:18;96470.59;;;6.10;100.00
39141;BME280;24875;48.436;10.298;2022-12-20T12:28:47;96474.66;;;5.95;100.00
39141;BME280;24875;48.436;10.298;2022-12-20T12:31:21;96481.84;;;5.84;100.00
39141;BME280;24875;48.436;10.298;2022-12-20T12:34:00;96485.41;;;5.83;100.00
39141;BME280;24875;48.436;10.298;2022-12-20T12:37:03;96481.44;;;5.79;100.00
39141;BME280;24875;48.436;10.298;2022-12-20T12:39:51;96469.16;;;5.89;100.00
39141;BME280;24875;48.436;10.298;2022-12-20T12:42:47;96479.56;;;5.98;100.00
39141;BME280;24875;48.436;10.298;2022-12-20T12:45:22;96470.41;;;5.85;100.00
39141;BME280;24875;48.436;10.298;2022-12-20T12:47:52;96473.38;;;5.99;100.00
39141;BME280;24875;48.436;10.298;2022-12-20T12:50:23;96468.53;;;5.68;100.00
39141;BME280;24875;48.436;10.298;2022-12-20T12:52:53;96467.88;;;5.56;100.00
39141;BME280;24875;48.436;10.298;2022-12-20T12:55:40;96475.00;;;5.64;100.00
39141;BME280;24875;48.436;10.298;2022-12-20T12:58:40;96470.44;;;5.75;100.00
39141;BME280;24875;48.436;10.298;2022-12-20T13:01:08;96467.31;;;5.53;100.00